createdAt,value
2023-02-11T00:00:40.635Z,92.44
2023-02-11T00:01:40.635Z,92.33
2023-02-11T00:02:40.610Z,92.12
2023-02-11T00:03:40.711Z,91.91
2023-02-11T00:04:40.605Z,92.02
2023-02-11T00:05:40.609Z,92.33
2023-02-11T00:06:40.576Z,92.44
2023-02-11T00:07:40.590Z,92.44
2023-02-11T00:08:40.564Z,92.65
2023-02-11T00:09:40.583Z,92.86
2023-02-11T00:10:40.533Z,93.18
2023-02-11T00:11:40.538Z,93.18
2023-02-11T00:12:40.510Z,93.07
2023-02-11T00:13:40.527Z,93.07
2023-02-11T00:14:40.497Z,93.34
2023-02-11T00:15:40.497Z,93.55
2023-02-11T00:16:40.531Z,93.66
2023-02-11T00:17:40.487Z,93.66
2023-02-11T00:18:40.449Z,93.49
2023-02-11T00:19:40.474Z,93.34
2023-02-11T00:20:40.453Z,93.13
2023-02-11T00:21:40.433Z,92.82
2023-02-11T00:22:40.416Z,92.50
2023-02-11T00:23:40.423Z,92.40
2023-02-11T00:24:40.401Z,92.60
2023-02-11T00:25:40.405Z,92.82
2023-02-11T00:26:40.374Z,92.71
2023-02-11T00:27:40.396Z,92.92
2023-02-11T00:28:40.349Z,92.82
2023-02-11T00:29:40.376Z,93.07
2023-02-11T00:30:40.417Z,93.18
2023-02-11T00:31:40.510Z,93.18
2023-02-11T00:32:40.316Z,93.18
2023-02-11T00:33:40.333Z,93.07
2023-02-11T00:34:40.284Z,92.86
2023-02-11T00:35:40.324Z,93.18
2023-02-11T00:36:40.274Z,93.28
2023-02-11T00:37:40.283Z,93.28
2023-02-11T00:38:40.241Z,93.38
2023-02-11T00:39:40.258Z,93.38
2023-02-11T00:40:40.226Z,92.76
2023-02-11T00:41:40.253Z,92.54
2023-02-11T00:42:40.201Z,92.02
2023-02-11T00:43:40.216Z,92.86
2023-02-11T00:44:40.193Z,92.96
2023-02-11T00:45:40.201Z,92.79
2023-02-11T00:46:40.271Z,92.76
2023-02-11T00:47:40.197Z,93.07
2023-02-11T00:48:40.142Z,93.07
2023-02-11T00:49:40.204Z,92.96
2023-02-11T00:50:40.130Z,92.65
2023-02-11T00:51:40.153Z,92.96
2023-02-11T00:52:40.111Z,92.96
2023-02-11T00:53:40.118Z,92.82
2023-02-11T00:54:40.088Z,92.54
2023-02-11T00:55:40.106Z,92.44
2023-02-11T00:56:40.058Z,92.54
2023-02-11T00:57:40.064Z,92.54
2023-02-11T00:58:40.053Z,92.54
2023-02-11T00:59:40.072Z,92.54
2023-02-11T01:00:40.027Z,92.65
2023-02-11T01:01:40.152Z,92.54
2023-02-11T01:02:40.011Z,92.44
2023-02-11T01:03:40.036Z,92.33
2023-02-11T01:04:39.990Z,92.44
2023-02-11T01:05:40.080Z,92.76
2023-02-11T01:06:39.961Z,92.86
2023-02-11T01:07:39.979Z,93.07
2023-02-11T01:08:39.958Z,93.07
2023-02-11T01:09:39.946Z,92.86
2023-02-11T01:10:39.926Z,93.07
2023-02-11T01:11:39.954Z,93.07
2023-02-11T01:12:39.917Z,92.96
2023-02-11T01:13:39.941Z,93.07
2023-02-11T01:14:39.886Z,93.28
2023-02-11T01:15:39.959Z,93.38
2023-02-11T01:16:39.868Z,93.28
2023-02-11T01:17:39.880Z,93.28
2023-02-11T01:18:39.883Z,92.96
2023-02-11T01:19:39.848Z,92.76
2023-02-11T01:20:39.822Z,92.96
2023-02-11T01:21:39.831Z,93.07
2023-02-11T01:22:39.808Z,93.18
2023-02-11T01:23:39.829Z,93.28
2023-02-11T01:24:39.797Z,93.49
2023-02-11T01:25:39.793Z,93.80
2023-02-11T01:26:39.765Z,93.91
2023-02-11T01:27:39.763Z,94.19
2023-02-11T01:28:39.841Z,94.29
2023-02-11T01:29:39.777Z,94.40
2023-02-11T01:30:39.813Z,94.51
2023-02-11T01:31:39.764Z,94.40
2023-02-11T01:32:39.708Z,94.29
2023-02-11T01:33:39.706Z,94.19
2023-02-11T01:34:39.703Z,94.08
2023-02-11T01:35:39.701Z,93.98
2023-02-11T01:36:39.661Z,93.77
2023-02-11T01:37:39.680Z,93.77
2023-02-11T01:38:39.644Z,93.55
2023-02-11T01:39:39.671Z,93.45
2023-02-11T01:40:39.678Z,93.34
2023-02-11T01:41:39.624Z,93.24
2023-02-11T01:42:39.609Z,93.24
2023-02-11T01:43:39.606Z,93.34
2023-02-11T01:44:39.589Z,93.24
2023-02-11T01:45:39.584Z,93.13
2023-02-11T01:46:39.607Z,93.24
2023-02-11T01:47:39.570Z,93.24
2023-02-11T01:48:39.558Z,93.13
2023-02-11T01:49:39.549Z,92.82
2023-02-11T01:50:39.532Z,93.03
2023-02-11T01:51:39.534Z,93.13
2023-02-11T01:52:39.512Z,92.92
2023-02-11T01:53:39.516Z,92.82
2023-02-11T01:54:39.492Z,92.60
2023-02-11T01:55:39.508Z,92.71
2023-02-11T01:56:39.481Z,92.71
2023-02-11T01:57:39.478Z,92.71
2023-02-11T01:58:39.444Z,92.60
2023-02-11T01:59:39.472Z,92.40
2023-02-11T02:00:39.428Z,92.71
2023-02-11T02:01:39.506Z,92.92
2023-02-11T02:02:39.415Z,93.13
2023-02-11T02:03:39.430Z,93.24
2023-02-11T02:04:39.379Z,93.03
2023-02-11T02:05:39.412Z,93.03
2023-02-11T02:06:39.375Z,93.03
2023-02-11T02:07:39.370Z,93.03
2023-02-11T02:08:39.384Z,93.13
2023-02-11T02:09:39.330Z,93.24
2023-02-11T02:10:39.348Z,93.34
2023-02-11T02:11:39.308Z,93.24
2023-02-11T02:12:39.318Z,93.03
2023-02-11T02:13:39.300Z,92.92
2023-02-11T02:14:39.307Z,93.03
2023-02-11T02:15:39.326Z,93.13
2023-02-11T02:16:39.375Z,93.30
2023-02-11T02:17:39.266Z,93.19
2023-02-11T02:18:39.253Z,93.09
2023-02-11T02:19:39.246Z,92.88
2023-02-11T02:20:39.240Z,92.88
2023-02-11T02:21:39.219Z,92.88
2023-02-11T02:22:39.224Z,93.09
2023-02-11T02:23:39.182Z,93.09
2023-02-11T02:24:39.202Z,93.09
2023-02-11T02:25:39.166Z,93.09
2023-02-11T02:26:39.184Z,92.99
2023-02-11T02:27:39.154Z,92.88
2023-02-11T02:28:39.160Z,92.67
2023-02-11T02:29:39.140Z,92.67
2023-02-11T02:30:39.163Z,92.77
2023-02-11T02:31:39.119Z,92.77
2023-02-11T02:32:39.130Z,92.77
2023-02-11T02:33:39.078Z,92.77
2023-02-11T02:34:39.109Z,92.77
2023-02-11T02:35:39.059Z,92.67
2023-02-11T02:36:39.076Z,92.57
2023-02-11T02:37:39.045Z,92.46
2023-02-11T02:38:39.052Z,92.57
2023-02-11T02:39:39.017Z,92.57
2023-02-11T02:40:39.038Z,92.57
2023-02-11T02:41:38.998Z,92.46
2023-02-11T02:42:39.002Z,92.35
2023-02-11T02:43:38.985Z,92.46
2023-02-11T02:44:38.980Z,92.67
2023-02-11T02:45:38.958Z,92.99
2023-02-11T02:46:39.026Z,93.19
2023-02-11T02:47:38.952Z,93.41
2023-02-11T02:48:38.959Z,93.51
2023-02-11T02:49:38.915Z,93.41
2023-02-11T02:50:38.939Z,93.30
2023-02-11T02:51:38.902Z,93.15
2023-02-11T02:52:38.935Z,92.94
2023-02-11T02:53:38.887Z,93.05
2023-02-11T02:54:38.888Z,93.05
2023-02-11T02:55:38.858Z,93.05
2023-02-11T02:56:38.879Z,93.05
2023-02-11T02:57:38.857Z,93.26
2023-02-11T02:58:38.869Z,93.47
2023-02-11T02:59:38.833Z,93.47
2023-02-11T03:00:38.845Z,93.57
2023-02-11T03:01:38.796Z,93.57
2023-02-11T03:02:38.812Z,93.57
2023-02-11T03:03:38.798Z,93.22
2023-02-11T03:04:38.786Z,93.22
2023-02-11T03:05:38.767Z,93.22
2023-02-11T03:06:38.786Z,93.11
2023-02-11T03:07:38.745Z,93.11
2023-02-11T03:08:38.754Z,93.11
2023-02-11T03:09:38.746Z,93.11
2023-02-11T03:10:38.737Z,93.11
2023-02-11T03:11:38.715Z,93.07
2023-02-11T03:12:38.737Z,93.07
2023-02-11T03:13:38.681Z,93.07
2023-02-11T03:14:38.691Z,93.18
2023-02-11T03:15:38.652Z,92.96
2023-02-11T03:16:38.702Z,92.96
2023-02-11T03:17:38.640Z,92.82
2023-02-11T03:18:38.656Z,92.82
2023-02-11T03:19:38.627Z,92.82
2023-02-11T03:20:38.626Z,92.92
2023-02-11T03:21:38.602Z,92.71
2023-02-11T03:22:38.606Z,92.71
2023-02-11T03:23:38.575Z,92.61
2023-02-11T03:24:38.592Z,92.71
2023-02-11T03:25:38.564Z,92.61
2023-02-11T03:26:38.599Z,92.50
2023-02-11T03:27:38.537Z,92.82
2023-02-11T03:28:38.549Z,93.03
2023-02-11T03:29:38.513Z,92.88
2023-02-11T03:30:38.548Z,92.67
2023-02-11T03:31:38.584Z,92.67
2023-02-11T03:32:38.495Z,92.88
2023-02-11T03:33:38.472Z,92.57
2023-02-11T03:34:38.488Z,92.46
2023-02-11T03:35:38.451Z,92.46
2023-02-11T03:36:38.480Z,92.21
2023-02-11T03:37:38.437Z,92.21
2023-02-11T03:38:38.432Z,92.31
2023-02-11T03:39:38.409Z,92.52
2023-02-11T03:40:38.415Z,92.52
2023-02-11T03:41:38.394Z,92.52
2023-02-11T03:42:38.422Z,92.52
2023-02-11T03:43:38.378Z,92.52
2023-02-11T03:44:38.374Z,92.52
2023-02-11T03:45:38.370Z,92.52
2023-02-11T03:46:38.381Z,92.84
2023-02-11T03:47:38.336Z,92.80
2023-02-11T03:48:38.349Z,92.80
2023-02-11T03:49:38.315Z,93.01
2023-02-11T03:50:38.332Z,92.69
2023-02-11T03:51:38.285Z,92.69
2023-02-11T03:52:38.314Z,92.58
2023-02-11T03:53:38.277Z,92.58
2023-02-11T03:54:38.286Z,92.38
2023-02-11T03:55:38.244Z,92.38
2023-02-11T03:56:38.266Z,92.16
2023-02-11T03:57:38.227Z,92.06
2023-02-11T03:58:38.242Z,92.06
2023-02-11T03:59:38.222Z,92.16
2023-02-11T04:00:38.223Z,92.23
2023-02-11T04:01:38.185Z,92.48
2023-02-11T04:02:38.204Z,92.44
2023-02-11T04:03:38.170Z,92.44
2023-02-11T04:04:38.181Z,92.48
2023-02-11T04:05:38.143Z,92.80
2023-02-11T04:06:38.155Z,92.80
2023-02-11T04:07:38.127Z,92.90
2023-02-11T04:08:38.143Z,93.22
2023-02-11T04:09:38.114Z,93.32
2023-02-11T04:10:38.109Z,93.43
2023-02-11T04:11:38.082Z,93.53
2023-02-11T04:12:38.091Z,93.53
2023-02-11T04:13:38.071Z,93.53
2023-02-11T04:14:38.073Z,93.32
2023-02-11T04:15:38.054Z,93.22
2023-02-11T04:16:38.146Z,93.22
2023-02-11T04:17:38.030Z,93.11
2023-02-11T04:18:38.042Z,93.11
2023-02-11T04:19:38.014Z,93.11
2023-02-11T04:20:38.013Z,93.22
2023-02-11T04:21:37.993Z,93.32
2023-02-11T04:22:38.004Z,93.43
2023-02-11T04:23:37.974Z,93.43
2023-02-11T04:24:37.969Z,93.43
2023-02-11T04:25:37.958Z,93.43
2023-02-11T04:26:37.975Z,93.32
2023-02-11T04:27:37.925Z,93.07
2023-02-11T04:28:37.979Z,92.96
2023-02-11T04:29:37.911Z,92.96
2023-02-11T04:30:38.027Z,92.86
2023-02-11T04:31:37.915Z,92.96
2023-02-11T04:32:37.897Z,93.07
2023-02-11T04:33:37.865Z,92.86
2023-02-11T04:34:37.886Z,92.86
2023-02-11T04:35:37.842Z,92.86
2023-02-11T04:36:37.883Z,92.76
2023-02-11T04:37:37.828Z,92.65
2023-02-11T04:38:37.850Z,92.76
2023-02-11T04:39:37.806Z,92.50
2023-02-11T04:40:37.824Z,92.29
2023-02-11T04:41:37.795Z,92.29
2023-02-11T04:42:37.825Z,92.40
2023-02-11T04:43:37.769Z,92.40
2023-02-11T04:44:37.771Z,92.61
2023-02-11T04:45:37.800Z,92.50
2023-02-11T04:46:37.762Z,92.40
2023-02-11T04:47:37.734Z,92.50
2023-02-11T04:48:37.736Z,92.61
2023-02-11T04:49:37.704Z,92.50
2023-02-11T04:50:37.707Z,92.46
2023-02-11T04:51:37.690Z,92.46
2023-02-11T04:52:37.704Z,92.46
2023-02-11T04:53:37.673Z,92.46
2023-02-11T04:54:37.689Z,92.46
2023-02-11T04:55:37.648Z,92.35
2023-02-11T04:56:37.667Z,92.14
2023-02-11T04:57:37.639Z,92.14
2023-02-11T04:58:37.655Z,92.14
2023-02-11T04:59:37.615Z,92.04
2023-02-11T05:00:37.611Z,92.04
2023-02-11T05:01:37.628Z,91.94
2023-02-11T05:02:37.615Z,91.94
2023-02-11T05:03:37.570Z,91.94
2023-02-11T05:04:37.572Z,91.83
2023-02-11T05:05:37.542Z,91.72
2023-02-11T05:06:37.561Z,91.58
2023-02-11T05:07:44.045Z,91.68
2023-02-11T05:08:37.541Z,91.68
2023-02-11T05:09:37.514Z,91.58
2023-02-11T05:10:37.532Z,91.79
2023-02-11T05:11:37.487Z,91.89
2023-02-11T05:12:37.501Z,91.89
2023-02-11T05:13:37.485Z,92.00
2023-02-11T05:14:37.489Z,92.00
2023-02-11T05:15:37.442Z,92.00
2023-02-11T05:16:37.492Z,92.32
2023-02-11T05:17:37.423Z,92.21
2023-02-11T05:18:37.429Z,92.21
2023-02-11T05:19:37.416Z,92.00
2023-02-11T05:20:37.419Z,91.89
2023-02-11T05:21:37.400Z,91.68
2023-02-11T05:22:37.400Z,91.58
2023-02-11T05:23:37.360Z,91.58
2023-02-11T05:24:37.383Z,91.68
2023-02-11T05:25:37.341Z,91.75
2023-02-11T05:26:37.350Z,91.53
2023-02-11T05:27:37.335Z,91.43
2023-02-11T05:28:37.398Z,91.33
2023-02-11T05:29:37.305Z,91.22
2023-02-11T05:30:37.355Z,91.33
2023-02-11T05:31:37.297Z,91.33
2023-02-11T05:32:37.304Z,91.33
2023-02-11T05:33:37.276Z,91.22
2023-02-11T05:34:37.282Z,91.33
2023-02-11T05:35:37.261Z,91.53
2023-02-11T05:36:37.317Z,91.64
2023-02-11T05:37:37.325Z,91.53
2023-02-11T05:38:37.250Z,91.39
2023-02-11T05:39:37.205Z,91.28
2023-02-11T05:40:37.227Z,91.18
2023-02-11T05:41:37.183Z,91.18
2023-02-11T05:42:37.203Z,91.08
2023-02-11T05:43:37.185Z,90.97
2023-02-11T05:44:37.170Z,90.87
2023-02-11T05:45:37.148Z,90.97
2023-02-11T05:46:37.263Z,91.08
2023-02-11T05:47:37.120Z,91.18
2023-02-11T05:48:37.141Z,91.08
2023-02-11T05:49:37.114Z,91.08
2023-02-11T05:50:37.125Z,91.50
2023-02-11T05:51:37.081Z,91.81
2023-02-11T05:52:37.097Z,91.91
2023-02-11T05:53:37.064Z,91.81
2023-02-11T05:54:37.089Z,92.02
2023-02-11T05:55:37.038Z,91.91
2023-02-11T05:56:37.050Z,92.02
2023-02-11T05:57:37.020Z,92.13
2023-02-11T05:58:37.024Z,92.13
2023-02-11T05:59:37.011Z,91.66
2023-02-11T06:00:37.009Z,91.46
2023-02-11T06:01:36.992Z,91.24
2023-02-11T06:02:37.034Z,91.35
2023-02-11T06:03:37.012Z,91.39
2023-02-11T06:04:36.965Z,91.35
2023-02-11T06:05:36.936Z,91.50
2023-02-11T06:06:36.964Z,91.91
2023-02-11T06:07:36.922Z,92.33
2023-02-11T06:08:39.130Z,92.44
2023-02-11T06:09:36.898Z,92.65
2023-02-11T06:10:36.864Z,92.65
2023-02-11T06:11:36.826Z,92.54
2023-02-11T06:12:36.909Z,92.48
2023-02-11T06:13:36.856Z,93.01
2023-02-11T06:14:36.880Z,93.21
2023-02-11T06:15:36.873Z,92.90
2023-02-11T06:16:36.859Z,93.01
2023-02-11T06:17:36.785Z,93.47
2023-02-11T06:18:36.784Z,93.57
2023-02-11T06:19:36.751Z,93.26
2023-02-11T06:20:36.759Z,93.36
2023-02-11T06:21:43.862Z,93.68
2023-02-11T06:22:36.727Z,93.68
2023-02-11T06:23:36.734Z,93.68
2023-02-11T06:24:58.651Z,93.15
2023-02-11T06:25:36.706Z,93.15
2023-02-11T06:26:36.687Z,93.36
2023-02-11T06:27:36.677Z,93.40
2023-02-11T06:28:36.719Z,93.82
2023-02-11T06:29:36.680Z,94.04
2023-02-11T06:30:36.635Z,94.35
2023-02-11T06:31:36.770Z,94.24
2023-02-11T06:32:44.489Z,94.35
2023-02-11T06:33:36.634Z,94.35
2023-02-11T06:34:36.607Z,94.35
2023-02-11T06:35:36.625Z,93.72
2023-02-11T06:36:36.616Z,93.51
2023-02-11T06:37:36.580Z,93.76
2023-02-11T06:38:36.551Z,93.87
2023-02-11T06:39:36.557Z,94.29
2023-02-11T06:40:36.544Z,94.60
2023-02-11T06:41:36.550Z,94.81
2023-02-11T06:42:36.513Z,94.71
2023-02-11T06:43:36.522Z,95.02
2023-02-11T06:44:36.499Z,95.44
2023-02-11T06:45:36.526Z,95.44
2023-02-11T06:46:36.593Z,95.13
2023-02-11T06:47:36.496Z,95.02
2023-02-11T06:48:36.457Z,95.34
2023-02-11T06:49:36.458Z,95.54
2023-02-11T06:50:36.434Z,95.54
2023-02-11T06:51:36.451Z,95.23
2023-02-11T06:52:36.416Z,95.23
2023-02-11T06:53:36.444Z,95.13
2023-02-11T06:54:36.397Z,95.13
2023-02-11T06:55:36.417Z,94.92
2023-02-11T06:56:36.375Z,94.92
2023-02-11T06:57:36.391Z,95.13
2023-02-11T06:58:36.357Z,95.23
2023-02-11T06:59:36.363Z,95.02
2023-02-11T07:00:36.329Z,94.92
2023-02-11T07:01:36.396Z,94.81
2023-02-11T07:02:36.434Z,95.02
2023-02-11T07:03:36.346Z,95.23
2023-02-11T07:04:36.289Z,95.34
2023-02-11T07:05:36.310Z,95.13
2023-02-11T07:06:36.276Z,95.44
2023-02-11T07:07:36.290Z,95.23
2023-02-11T07:08:36.258Z,94.92
2023-02-11T07:09:36.267Z,94.81
2023-02-11T07:10:36.235Z,94.49
2023-02-11T07:11:36.244Z,94.29
2023-02-11T07:12:36.214Z,94.08
2023-02-11T07:13:36.225Z,93.66
2023-02-11T07:14:36.190Z,93.72
2023-02-11T07:15:36.201Z,93.72
2023-02-11T07:16:36.203Z,93.72
2023-02-11T07:17:36.184Z,93.15
2023-02-11T07:18:36.148Z,93.05
2023-02-11T07:19:36.174Z,92.94
2023-02-11T07:20:36.124Z,92.48
2023-02-11T07:21:36.146Z,91.96
2023-02-11T07:22:36.122Z,91.75
2023-02-11T07:23:36.135Z,91.85
2023-02-11T07:24:36.093Z,91.96
2023-02-11T07:25:36.099Z,92.16
2023-02-11T07:26:36.066Z,92.38
2023-02-11T07:27:36.092Z,92.58
2023-02-11T07:28:36.057Z,92.69
2023-02-11T07:29:36.065Z,92.80
2023-02-11T07:30:36.032Z,92.86
2023-02-11T07:31:36.172Z,92.65
2023-02-11T07:32:36.004Z,92.76
2023-02-11T07:33:36.030Z,92.65
2023-02-11T07:34:36.078Z,92.76
2023-02-11T07:35:35.989Z,92.61
2023-02-11T07:36:35.962Z,92.92
2023-02-11T07:37:35.993Z,93.02
2023-02-11T07:38:35.959Z,92.77
2023-02-11T07:39:35.975Z,92.46
2023-02-11T07:40:35.926Z,92.04
2023-02-11T07:41:38.035Z,92.10
2023-02-11T07:42:35.902Z,91.89
2023-02-11T07:43:35.931Z,91.69
2023-02-11T07:44:35.892Z,91.47
2023-02-11T07:45:35.903Z,91.43
2023-02-11T07:46:36.011Z,90.91
2023-02-11T07:47:35.884Z,91.22
2023-02-11T07:48:35.842Z,91.22
2023-02-11T07:49:35.860Z,91.12
2023-02-11T07:50:35.834Z,90.87
2023-02-11T07:51:35.850Z,90.56
2023-02-11T07:52:35.809Z,90.31
2023-02-11T07:53:35.808Z,89.99
2023-02-11T07:54:35.791Z,89.78
2023-02-11T07:55:35.802Z,89.53
2023-02-11T07:56:35.765Z,89.53
2023-02-11T07:57:35.777Z,89.70
2023-02-11T07:58:35.741Z,89.28
2023-02-11T07:59:35.740Z,88.62
2023-02-11T08:00:35.747Z,87.99
2023-02-11T08:01:35.747Z,87.88
2023-02-11T08:02:35.764Z,88.41
2023-02-11T08:03:35.714Z,88.26
2023-02-11T08:04:35.670Z,88.06
2023-02-11T08:05:35.689Z,87.49
2023-02-11T08:06:35.662Z,86.66
2023-02-11T08:07:35.677Z,86.69
2023-02-11T08:08:35.629Z,86.80
2023-02-11T08:09:35.650Z,87.53
2023-02-11T08:10:35.609Z,87.63
2023-02-11T08:11:35.618Z,87.63
2023-02-11T08:12:35.599Z,87.84
2023-02-11T08:13:35.600Z,88.16
2023-02-11T08:14:35.563Z,88.37
2023-02-11T08:15:35.583Z,88.47
2023-02-11T08:16:35.583Z,88.47
2023-02-11T08:17:35.544Z,88.47
2023-02-11T08:18:35.539Z,88.57
2023-02-11T08:19:35.569Z,88.78
2023-02-11T08:20:35.505Z,88.47
2023-02-11T08:21:35.531Z,88.16
2023-02-11T08:22:35.488Z,88.16
2023-02-11T08:23:35.503Z,88.47
2023-02-11T08:24:35.483Z,88.57
2023-02-11T08:25:35.470Z,88.53
2023-02-11T08:26:35.439Z,88.43
2023-02-11T08:27:35.445Z,88.32
2023-02-11T08:28:35.428Z,88.32
2023-02-11T08:29:35.478Z,87.87
2023-02-11T08:30:35.386Z,87.55
2023-02-11T08:31:35.479Z,87.55
2023-02-11T08:32:35.381Z,87.76
2023-02-11T08:33:35.373Z,87.76
2023-02-11T08:34:35.343Z,87.83
2023-02-11T08:35:35.363Z,87.73
2023-02-11T08:36:35.328Z,87.62
2023-02-11T08:37:35.341Z,87.20
2023-02-11T08:38:35.319Z,86.79
2023-02-11T08:39:35.313Z,86.58
2023-02-11T08:40:35.278Z,86.43
2023-02-11T08:41:35.284Z,86.43
2023-02-11T08:42:35.263Z,86.22
2023-02-11T08:43:35.268Z,86.12
2023-02-11T08:44:35.245Z,86.33
2023-02-11T08:45:35.319Z,86.12
2023-02-11T08:46:35.228Z,86.08
2023-02-11T08:47:35.234Z,86.40
2023-02-11T08:48:35.196Z,85.88
2023-02-11T08:49:35.246Z,85.98
2023-02-11T08:50:35.177Z,86.08
2023-02-11T08:51:35.186Z,86.19
2023-02-11T08:52:35.160Z,86.15
2023-02-11T08:53:35.158Z,85.94
2023-02-11T08:54:35.133Z,85.73
2023-02-11T08:55:35.170Z,85.42
2023-02-11T08:56:35.135Z,85.31
2023-02-11T08:57:35.137Z,84.75
2023-02-11T08:58:35.094Z,84.96
2023-02-11T08:59:35.097Z,84.75
2023-02-11T09:00:35.085Z,83.72
2023-02-11T09:01:35.175Z,82.53
2023-02-11T09:02:35.101Z,82.95
2023-02-11T09:03:35.057Z,83.22
2023-02-11T09:04:35.036Z,82.70
2023-02-11T09:05:35.090Z,82.60
2023-02-11T09:06:35.016Z,82.46
2023-02-11T09:07:35.017Z,80.49
2023-02-11T09:08:34.984Z,79.65
2023-02-11T09:09:35.035Z,79.41
2023-02-11T09:10:34.980Z,78.68
2023-02-11T09:11:35.004Z,78.27
2023-02-11T09:12:34.945Z,77.92
2023-02-11T09:13:34.964Z,77.09
2023-02-11T09:14:34.925Z,76.78
2023-02-11T09:15:34.941Z,77.16
2023-02-11T09:16:35.006Z,77.89
2023-02-11T09:17:34.931Z,76.71
2023-02-11T09:18:34.885Z,76.19
2023-02-11T09:19:34.890Z,76.09
2023-02-11T09:20:34.859Z,75.84
2023-02-11T09:21:34.873Z,74.91
2023-02-11T09:22:34.837Z,74.60
2023-02-11T09:23:34.850Z,74.29
2023-02-11T09:24:34.818Z,74.19
2023-02-11T09:25:34.830Z,74.29
2023-02-11T09:26:34.803Z,74.15
2023-02-11T09:27:34.822Z,74.26
2023-02-11T09:28:34.794Z,74.57
2023-02-11T09:29:34.778Z,73.50
2023-02-11T09:30:34.812Z,72.98
2023-02-11T09:31:34.879Z,72.56
2023-02-11T09:32:34.736Z,72.77
2023-02-11T09:33:34.734Z,72.88
2023-02-11T09:34:34.709Z,72.77
2023-02-11T09:35:34.731Z,73.29
2023-02-11T09:36:34.702Z,73.60
2023-02-11T09:37:37.231Z,73.88
2023-02-11T09:38:34.677Z,72.81
2023-02-11T09:39:34.683Z,71.88
2023-02-11T09:40:34.652Z,71.84
2023-02-11T09:41:34.648Z,71.43
2023-02-11T09:42:34.637Z,71.61
2023-02-11T09:43:34.641Z,71.81
2023-02-11T09:44:34.612Z,71.61
2023-02-11T09:45:34.611Z,70.61
2023-02-11T09:46:34.657Z,71.22
2023-02-11T09:47:34.602Z,72.05
2023-02-11T09:48:34.585Z,72.26
2023-02-11T09:49:34.575Z,71.74
2023-02-11T09:50:34.539Z,71.84
2023-02-11T09:51:34.543Z,71.53
2023-02-11T09:52:34.517Z,71.95
2023-02-11T09:53:34.593Z,71.95
2023-02-11T09:54:34.511Z,71.95
2023-02-11T09:55:34.510Z,72.47
2023-02-11T09:56:34.474Z,71.40
2023-02-11T09:57:34.495Z,71.30
2023-02-11T09:58:34.467Z,71.06
2023-02-11T09:59:34.462Z,70.54
2023-02-11T10:00:34.443Z,70.75
2023-02-11T10:01:34.490Z,70.43
2023-02-11T10:02:34.413Z,70.98
2023-02-11T10:03:34.440Z,71.19
2023-02-11T10:04:34.452Z,71.61
2023-02-11T10:05:34.425Z,72.02
2023-02-11T10:06:34.383Z,71.92
2023-02-11T10:07:34.390Z,71.30
2023-02-11T10:08:34.360Z,71.40
2023-02-11T10:09:34.384Z,72.02
2023-02-11T10:10:34.333Z,71.71
2023-02-11T10:11:34.344Z,71.92
2023-02-11T10:12:34.305Z,71.09
2023-02-11T10:13:34.308Z,71.47
2023-02-11T10:14:34.309Z,71.16
2023-02-11T10:15:34.296Z,71.37
2023-02-11T10:16:34.277Z,71.26
2023-02-11T10:17:34.284Z,71.06
2023-02-11T10:18:34.251Z,71.16
2023-02-11T10:19:34.250Z,71.47
2023-02-11T10:20:34.253Z,70.75
2023-02-11T10:21:34.237Z,70.43
2023-02-11T10:22:34.197Z,70.51
2023-02-11T10:23:34.208Z,70.06
2023-02-11T10:24:34.181Z,69.65
2023-02-11T10:25:34.211Z,69.65
2023-02-11T10:26:34.160Z,68.59
2023-02-11T10:27:34.175Z,68.17
2023-02-11T10:28:34.275Z,68.27
2023-02-11T10:29:34.153Z,68.17
2023-02-11T10:30:34.143Z,68.27
2023-02-11T10:31:34.271Z,68.59
2023-02-11T10:32:34.104Z,69.31
2023-02-11T10:33:34.108Z,68.76
2023-02-11T10:34:34.083Z,67.52
2023-02-11T10:35:34.074Z,67.60
2023-02-11T10:36:34.049Z,67.08
2023-02-11T10:37:34.080Z,67.60
2023-02-11T10:38:34.049Z,67.05
2023-02-11T10:39:34.017Z,66.87
2023-02-11T10:40:34.022Z,67.49
2023-02-11T10:41:33.993Z,66.94
2023-02-11T10:42:34.021Z,66.84
2023-02-11T10:43:33.968Z,65.92
2023-02-11T10:44:33.979Z,66.40
2023-02-11T10:45:33.953Z,66.19
2023-02-11T10:46:34.089Z,65.68
2023-02-11T10:47:33.937Z,65.86
2023-02-11T10:48:33.952Z,65.86
2023-02-11T10:49:33.905Z,65.68
2023-02-11T10:50:33.913Z,66.40
2023-02-11T10:51:33.890Z,66.61
2023-02-11T10:52:33.924Z,66.61
2023-02-11T10:53:33.861Z,66.64
2023-02-11T10:54:33.867Z,66.87
2023-02-11T10:55:33.854Z,67.32
2023-02-11T10:56:33.873Z,67.73
2023-02-11T10:57:33.826Z,68.27
2023-02-11T10:58:33.822Z,68.45
2023-02-11T10:59:33.798Z,68.66
2023-02-11T11:00:33.814Z,68.24
2023-02-11T11:01:33.859Z,67.63
2023-02-11T11:02:33.783Z,68.24
2023-02-11T11:03:33.761Z,68.45
2023-02-11T11:04:33.896Z,68.24
2023-02-11T11:05:33.731Z,68.48
2023-02-11T11:06:33.756Z,68.59
2023-02-11T11:07:33.724Z,69.00
2023-02-11T11:08:33.751Z,68.79
2023-02-11T11:09:33.689Z,69.10
2023-02-11T11:10:33.707Z,69.13
2023-02-11T11:11:33.666Z,69.44
2023-02-11T11:12:33.671Z,69.65
2023-02-11T11:13:33.644Z,69.54
2023-02-11T11:14:33.675Z,69.54
2023-02-11T11:15:33.631Z,69.51
2023-02-11T11:16:33.644Z,69.20
2023-02-11T11:17:33.608Z,68.90
2023-02-11T11:18:33.603Z,68.90
2023-02-11T11:19:33.583Z,69.20
2023-02-11T11:20:33.599Z,69.41
2023-02-11T11:21:33.566Z,69.51
2023-02-11T11:22:33.595Z,69.44
2023-02-11T11:23:33.545Z,69.96
2023-02-11T11:24:33.576Z,70.06
2023-02-11T11:25:33.517Z,70.06
2023-02-11T11:26:33.531Z,69.85
2023-02-11T11:27:33.496Z,70.17
2023-02-11T11:28:33.604Z,70.34
2023-02-11T11:29:33.477Z,70.03
2023-02-11T11:30:33.532Z,70.03
2023-02-11T11:31:33.601Z,69.82
2023-02-11T11:32:33.495Z,69.62
2023-02-11T11:33:33.428Z,69.27
2023-02-11T11:34:33.446Z,69.48
2023-02-11T11:35:33.424Z,69.59
2023-02-11T11:36:33.411Z,69.48
2023-02-11T11:37:33.394Z,69.17
2023-02-11T11:38:33.401Z,69.07
2023-02-11T11:39:33.374Z,68.66
2023-02-11T11:40:33.378Z,68.86
2023-02-11T11:41:33.338Z,69.17
2023-02-11T11:42:33.371Z,69.48
2023-02-11T11:43:33.317Z,69.38
2023-02-11T11:44:33.329Z,69.27
2023-02-11T11:45:33.291Z,69.20
2023-02-11T11:46:33.346Z,69.44
2023-02-11T11:47:33.269Z,70.17
2023-02-11T11:48:33.292Z,70.37
2023-02-11T11:49:33.259Z,70.78
2023-02-11T11:50:33.274Z,70.78
2023-02-11T11:51:33.226Z,70.89
2023-02-11T11:52:33.241Z,70.61
2023-02-11T11:53:33.208Z,70.51
2023-02-11T11:54:33.237Z,70.72
2023-02-11T11:55:33.210Z,70.82
2023-02-11T11:56:33.189Z,70.47
2023-02-11T11:57:33.168Z,70.72
2023-02-11T11:58:33.180Z,70.61
2023-02-11T11:59:33.138Z,70.92
2023-02-11T12:00:33.157Z,70.72
2023-02-11T12:01:33.175Z,70.82
2023-02-11T12:02:33.155Z,70.68
2023-02-11T12:03:33.121Z,70.72
2023-02-11T12:04:33.099Z,70.68
2023-02-11T12:05:33.100Z,70.57
2023-02-11T12:06:33.094Z,70.30
2023-02-11T12:07:33.107Z,70.51
2023-02-11T12:08:33.070Z,70.51
2023-02-11T12:09:33.031Z,70.57
2023-02-11T12:10:33.067Z,70.17
2023-02-11T12:11:33.017Z,70.06
2023-02-11T12:12:33.053Z,70.06
2023-02-11T12:13:33.011Z,70.37
2023-02-11T12:14:33.012Z,70.17
2023-02-11T12:15:32.966Z,70.17
2023-02-11T12:16:33.030Z,69.99
2023-02-11T12:17:32.953Z,70.40
2023-02-11T12:18:32.969Z,70.51
2023-02-11T12:19:32.925Z,70.51
2023-02-11T12:20:32.951Z,70.51
2023-02-11T12:21:32.904Z,70.37
2023-02-11T12:22:32.906Z,70.37
2023-02-11T12:23:32.888Z,70.37
2023-02-11T12:24:32.887Z,69.96
2023-02-11T12:25:32.861Z,69.85
2023-02-11T12:26:32.879Z,70.06
2023-02-11T12:27:32.855Z,70.27
2023-02-11T12:28:32.929Z,70.72
2023-02-11T12:29:32.813Z,70.72
2023-02-11T12:30:32.875Z,70.92
2023-02-11T12:31:32.838Z,70.82
2023-02-11T12:32:32.803Z,70.92
2023-02-11T12:33:32.783Z,70.47
2023-02-11T12:34:32.806Z,70.51
2023-02-11T12:35:32.766Z,70.61
2023-02-11T12:36:32.781Z,70.72
2023-02-11T12:37:32.742Z,70.72
2023-02-11T12:38:32.739Z,70.72
2023-02-11T12:39:32.712Z,70.57
2023-02-11T12:40:32.743Z,70.47
2023-02-11T12:41:32.705Z,70.17
2023-02-11T12:42:32.717Z,69.96
2023-02-11T12:43:32.670Z,70.17
2023-02-11T12:44:32.687Z,70.06
2023-02-11T12:45:32.702Z,69.65
2023-02-11T12:46:32.677Z,69.85
2023-02-11T12:47:32.625Z,69.82
2023-02-11T12:48:35.464Z,69.41
2023-02-11T12:49:32.638Z,69.20
2023-02-11T12:50:32.628Z,69.20
2023-02-11T12:51:32.587Z,69.20
2023-02-11T12:52:32.604Z,68.93